sensor_id;sensor_type;location;lat;lon;timestamp;pressure;altitude;pressure_sealevel;temperature;humidity
11198;BME280;5655;48.744;9.162;2023-11-19T00:01:27;96183.69;;;8.98;100.00
11198;BME280;5655;48.744;9.162;2023-11-19T00:03:53;96185.81;;;8.89;100.00
11198;BME280;5655;48.744;9.162;2023-11-19T00:06:18;96186.44;;;8.79;100.00
11198;BME280;5655;48.744;9.162;2023-11-19T00:08:44;96195.53;;;8.97;100.00
11198;BME280;5655;48.744;9.162;2023-11-19T00:11:09;96193.00;;;8.85;100.00
11198;BME280;5655;48.744;9.162;2023-11-19T00:13:34;96203.03;;;8.91;100.00
11198;BME280;5655;48.744;9.162;2023-11-19T00:16:00;96210.88;;;9.03;100.00
11198;BME280;5655;48.744;9.162;2023-11-19T00:18:25;96214.41;;;9.11;100.00
11198;BME280;5655;48.744;9.162;2023-11-19T00:20:50;96208.38;;;9.14;100.00
11198;BME280;5655;48.744;9.162;2023-11-19T00:23:16;96211.69;;;9.07;100.00
11198;BME280;5655;48.744;9.162;2023-11-19T00:25:41;96217.09;;;9.11;100.00
11198;BME280;5655;48.744;9.162;2023-11-19T00:28:06;96232.41;;;9.14;100.00
11198;BME280;5655;48.744;9.162;2023-11-19T00:30:32;96248.34;;;9.10;100.00
11198;BME280;5655;48.744;9.162;2023-11-19T00:32:57;96259.34;;;9.28;100.00
11198;BME280;5655;48.744;9.162;2023-11-19T00:35:22;96269.13;;;9.21;100.00
11198;BME280;5655;48.744;9.162;2023-11-19T00:37:48;96272.88;;;9.16;100.00
11198;BME280;5655;48.744;9.162;2023-11-19T00:40:14;96267.88;;;9.37;100.00
11198;BME280;5655;48.744;9.162;2023-11-19T00:42:41;96254.97;;;9.39;100.00
11198;BME280;5655;48.744;9.162;2023-11-19T00:45:06;96259.78;;;9.30;100.00
11198;BME280;5655;48.744;9.162;2023-11-19T00:47:35;96259.59;;;9.42;100.00
11198;BME280;5655;48.744;9.162;2023-11-19T00:50:01;96262.69;;;9.44;100.00
11198;BME280;5655;48.744;9.162;2023-11-19T00:52:27;96271.81;;;9.43;100.00
11198;BME280;5655;48.744;9.162;2023-11-19T00:54:52;96266.97;;;9.49;100.00
11198;BME280;5655;48.744;9.162;2023-11-19T00:57:17;96253.03;;;9.63;100.00
11198;BME280;5655;48.744;9.162;2023-11-19T00:59:43;96255.19;;;9.80;100.00
11198;BME280;5655;48.744;9.162;2023-11-19T01:02:08;96256.16;;;9.68;100.00
11198;BME280;5655;48.744;9.162;2023-11-19T01:04:34;96259.41;;;9.81;100.00
11198;BME280;5655;48.744;9.162;2023-11-19T01:07:04;96257.78;;;9.99;100.00
11198;BME280;5655;48.744;9.162;2023-11-19T01:09:31;96245.94;;;10.00;100.00
11198;BME280;5655;48.744;9.162;2023-11-19T01:12:01;96247.59;;;10.08;100.00
11198;BME280;5655;48.744;9.162;2023-11-19T01:14:27;96243.59;;;9.95;100.00
11198;BME280;5655;48.744;9.162;2023-11-19T01:16:53;96242.97;;;10.05;100.00
11198;BME280;5655;48.744;9.162;2023-11-19T01:19:21;96231.84;;;10.29;100.00
11198;BME280;5655;48.744;9.162;2023-11-19T01:21:47;96233.78;;;10.06;100.00
11198;BME280;5655;48.744;9.162;2023-11-19T01:24:12;96225.56;;;10.18;100.00
11198;BME280;5655;48.744;9.162;2023-11-19T01:26:39;96222.69;;;10.30;100.00
11198;BME280;5655;48.744;9.162;2023-11-19T01:29:10;96209.00;;;10.35;100.00
11198;BME280;5655;48.744;9.162;2023-11-19T01:31:35;96208.88;;;10.25;100.00
11198;BME280;5655;48.744;9.162;2023-11-19T01:34:02;96208.44;;;10.53;100.00
11198;BME280;5655;48.744;9.162;2023-11-19T01:36:27;96207.47;;;10.34;100.00
11198;BME280;5655;48.744;9.162;2023-11-19T01:38:53;96219.03;;;10.45;100.00
11198;BME280;5655;48.744;9.162;2023-11-19T01:41:18;96225.19;;;10.50;100.00
11198;BME280;5655;48.744;9.162;2023-11-19T01:43:43;96217.19;;;10.50;100.00
11198;BME280;5655;48.744;9.162;2023-11-19T01:46:12;96211.22;;;10.63;100.00
11198;BME280;5655;48.744;9.162;2023-11-19T01:48:42;96219.97;;;10.60;100.00
11198;BME280;5655;48.744;9.162;2023-11-19T01:51:09;96219.13;;;10.53;100.00
11198;BME280;5655;48.744;9.162;2023-11-19T01:53:36;96235.34;;;10.67;100.00
11198;BME280;5655;48.744;9.162;2023-11-19T01:56:04;96231.69;;;10.82;100.00
11198;BME280;5655;48.744;9.162;2023-11-19T01:58:30;96210.94;;;10.75;100.00
11198;BME280;5655;48.744;9.162;2023-11-19T02:00:56;96222.59;;;10.90;100.00
11198;BME280;5655;48.744;9.162;2023-11-19T02:03:22;96202.63;;;10.84;100.00
11198;BME280;5655;48.744;9.162;2023-11-19T02:05:51;96210.31;;;10.85;100.00
11198;BME280;5655;48.744;9.162;2023-11-19T02:08:18;96203.31;;;10.74;100.00
11198;BME280;5655;48.744;9.162;2023-11-19T02:10:43;96194.94;;;10.79;100.00
11198;BME280;5655;48.744;9.162;2023-11-19T02:13:08;96216.09;;;10.91;100.00
11198;BME280;5655;48.744;9.162;2023-11-19T02:15:35;96204.16;;;10.85;100.00
11198;BME280;5655;48.744;9.162;2023-11-19T02:18:22;96213.53;;;11.05;100.00
11198;BME280;5655;48.744;9.162;2023-11-19T02:20:49;96203.47;;;10.91;100.00
11198;BME280;5655;48.744;9.162;2023-11-19T02:23:15;96201.81;;;10.80;100.00
11198;BME280;5655;48.744;9.162;2023-11-19T02:25:40;96212.03;;;11.04;100.00
11198;BME280;5655;48.744;9.162;2023-11-19T02:28:07;96193.97;;;10.98;100.00
11198;BME280;5655;48.744;9.162;2023-11-19T02:30:32;96187.78;;;10.90;100.00
11198;BME280;5655;48.744;9.162;2023-11-19T02:33:01;96194.59;;;11.24;100.00
11198;BME280;5655;48.744;9.162;2023-11-19T02:35:31;96197.53;;;11.09;100.00
11198;BME280;5655;48.744;9.162;2023-11-19T02:37:58;96192.19;;;11.12;100.00
11198;BME280;5655;48.744;9.162;2023-11-19T02:40:29;96192.84;;;11.02;100.00
11198;BME280;5655;48.744;9.162;2023-11-19T02:42:54;96187.56;;;11.09;100.00
11198;BME280;5655;48.744;9.162;2023-11-19T02:45:22;96190.38;;;11.27;100.00
11198;BME280;5655;48.744;9.162;2023-11-19T02:47:47;96193.69;;;11.10;100.00
11198;BME280;5655;48.744;9.162;2023-11-19T02:50:13;96201.75;;;11.13;100.00
11198;BME280;5655;48.744;9.162;2023-11-19T02:52:42;96208.25;;;11.12;100.00
11198;BME280;5655;48.744;9.162;2023-11-19T02:55:08;96216.78;;;11.21;100.00
11198;BME280;5655;48.744;9.162;2023-11-19T02:57:40;96207.47;;;11.08;100.00
11198;BME280;5655;48.744;9.162;2023-11-19T03:00:17;96223.72;;;11.29;100.00
11198;BME280;5655;48.744;9.162;2023-11-19T03:02:44;96215.28;;;11.27;100.00
11198;BME280;5655;48.744;9.162;2023-11-19T03:05:14;96211.16;;;11.37;100.00
11198;BME280;5655;48.744;9.162;2023-11-19T03:07:42;96205.25;;;11.17;100.00
11198;BME280;5655;48.744;9.162;2023-11-19T03:10:09;96212.84;;;11.12;100.00
11198;BME280;5655;48.744;9.162;2023-11-19T03:12:37;96209.06;;;11.16;100.00
11198;BME280;5655;48.744;9.162;2023-11-19T03:15:03;96232.03;;;11.17;100.00
11198;BME280;5655;48.744;9.162;2023-11-19T03:17:28;96227.47;;;11.21;100.00
11198;BME280;5655;48.744;9.162;2023-11-19T03:19:53;96229.09;;;11.29;100.00
11198;BME280;5655;48.744;9.162;2023-11-19T03:22:18;96216.81;;;11.28;100.00
11198;BME280;5655;48.744;9.162;2023-11-19T03:24:44;96221.34;;;11.21;100.00
11198;BME280;5655;48.744;9.162;2023-11-19T03:27:09;96211.16;;;11.37;100.00
11198;BME280;5655;48.744;9.162;2023-11-19T03:29:35;96218.75;;;11.31;100.00
11198;BME280;5655;48.744;9.162;2023-11-19T03:32:00;96212.94;;;11.22;100.00
11198;BME280;5655;48.744;9.162;2023-11-19T03:34:25;96205.00;;;11.36;100.00
11198;BME280;5655;48.744;9.162;2023-11-19T03:36:51;96216.16;;;11.38;100.00
11198;BME280;5655;48.744;9.162;2023-11-19T03:39:16;96206.50;;;11.30;100.00
11198;BME280;5655;48.744;9.162;2023-11-19T03:41:45;96217.03;;;11.57;100.00
11198;BME280;5655;48.744;9.162;2023-11-19T03:44:12;96206.91;;;11.36;100.00
11198;BME280;5655;48.744;9.162;2023-11-19T03:46:37;96203.94;;;11.45;100.00
11198;BME280;5655;48.744;9.162;2023-11-19T03:49:02;96190.97;;;11.50;100.00
11198;BME280;5655;48.744;9.162;2023-11-19T03:51:29;96199.00;;;11.50;100.00
11198;BME280;5655;48.744;9.162;2023-11-19T03:53:54;96193.16;;;11.37;100.00
11198;BME280;5655;48.744;9.162;2023-11-19T03:56:20;96200.88;;;11.43;100.00
11198;BME280;5655;48.744;9.162;2023-11-19T03:58:46;96192.63;;;11.69;100.00
11198;BME280;5655;48.744;9.162;2023-11-19T04:01:11;96178.13;;;11.73;100.00
11198;BME280;5655;48.744;9.162;2023-11-19T04:03:38;96168.72;;;11.43;100.00
11198;BME280;5655;48.744;9.162;2023-11-19T04:06:03;96170.66;;;11.53;100.00
11198;BME280;5655;48.744;9.162;2023-11-19T04:08:29;96165.38;;;11.60;100.00
11198;BME280;5655;48.744;9.162;2023-11-19T04:10:55;96161.16;;;11.59;100.00
11198;BME280;5655;48.744;9.162;2023-11-19T04:13:20;96161.94;;;11.63;100.00
11198;BME280;5655;48.744;9.162;2023-11-19T04:15:45;96168.34;;;11.48;100.00
11198;BME280;5655;48.744;9.162;2023-11-19T04:18:11;96155.00;;;11.55;100.00
11198;BME280;5655;48.744;9.162;2023-11-19T04:20:36;96159.94;;;11.53;100.00
11198;BME280;5655;48.744;9.162;2023-11-19T04:23:01;96173.00;;;11.54;100.00
11198;BME280;5655;48.744;9.162;2023-11-19T04:25:27;96169.63;;;11.68;100.00
11198;BME280;5655;48.744;9.162;2023-11-19T04:27:52;96165.63;;;11.41;100.00
11198;BME280;5655;48.744;9.162;2023-11-19T04:30:18;96158.13;;;11.64;100.00
11198;BME280;5655;48.744;9.162;2023-11-19T04:32:44;96161.50;;;11.54;100.00
11198;BME280;5655;48.744;9.162;2023-11-19T04:35:09;96162.72;;;11.67;100.00
11198;BME280;5655;48.744;9.162;2023-11-19T04:37:35;96158.09;;;11.60;100.00
11198;BME280;5655;48.744;9.162;2023-11-19T04:40:01;96159.59;;;11.58;100.00
11198;BME280;5655;48.744;9.162;2023-11-19T04:42:26;96171.13;;;11.62;100.00
11198;BME280;5655;48.744;9.162;2023-11-19T04:44:52;96168.09;;;11.67;100.00
11198;BME280;5655;48.744;9.162;2023-11-19T04:47:17;96159.25;;;11.63;100.00
11198;BME280;5655;48.744;9.162;2023-11-19T04:49:42;96161.31;;;11.80;100.00
11198;BME280;5655;48.744;9.162;2023-11-19T04:52:08;96162.06;;;11.77;100.00
11198;BME280;5655;48.744;9.162;2023-11-19T04:54:34;96152.13;;;11.81;100.00
11198;BME280;5655;48.744;9.162;2023-11-19T04:56:59;96149.50;;;11.95;100.00
11198;BME280;5655;48.744;9.162;2023-11-19T04:59:24;96160.53;;;11.83;100.00
11198;BME280;5655;48.744;9.162;2023-11-19T05:01:50;96149.84;;;11.87;100.00
11198;BME280;5655;48.744;9.162;2023-11-19T05:04:15;96151.38;;;11.91;100.00
11198;BME280;5655;48.744;9.162;2023-11-19T05:06:41;96149.88;;;11.90;100.00
11198;BME280;5655;48.744;9.162;2023-11-19T05:09:06;96158.66;;;11.87;100.00
11198;BME280;5655;48.744;9.162;2023-11-19T05:11:35;96144.44;;;11.83;100.00
11198;BME280;5655;48.744;9.162;2023-11-19T05:14:02;96156.03;;;11.98;100.00
11198;BME280;5655;48.744;9.162;2023-11-19T05:16:29;96147.78;;;11.66;100.00
11198;BME280;5655;48.744;9.162;2023-11-19T05:18:54;96154.69;;;11.70;100.00
11198;BME280;5655;48.744;9.162;2023-11-19T05:21:19;96154.44;;;11.86;100.00
11198;BME280;5655;48.744;9.162;2023-11-19T05:23:44;96156.75;;;11.88;100.00
11198;BME280;5655;48.744;9.162;2023-11-19T05:26:17;96163.72;;;11.99;100.00
11198;BME280;5655;48.744;9.162;2023-11-19T05:28:42;96159.03;;;11.82;100.00
11198;BME280;5655;48.744;9.162;2023-11-19T05:31:08;96171.63;;;11.78;100.00
11198;BME280;5655;48.744;9.162;2023-11-19T05:33:33;96181.63;;;11.81;100.00
11198;BME280;5655;48.744;9.162;2023-11-19T05:35:59;96180.50;;;11.86;100.00
11198;BME280;5655;48.744;9.162;2023-11-19T05:38:24;96187.47;;;12.04;100.00
11198;BME280;5655;48.744;9.162;2023-11-19T05:40:49;96188.22;;;11.94;100.00
11198;BME280;5655;48.744;9.162;2023-11-19T05:43:15;96184.34;;;11.95;100.00
11198;BME280;5655;48.744;9.162;2023-11-19T05:45:42;96182.78;;;11.87;100.00
11198;BME280;5655;48.744;9.162;2023-11-19T05:48:07;96185.13;;;11.92;100.00
11198;BME280;5655;48.744;9.162;2023-11-19T05:50:33;96179.47;;;12.08;100.00
11198;BME280;5655;48.744;9.162;2023-11-19T05:52:59;96170.59;;;11.97;100.00
11198;BME280;5655;48.744;9.162;2023-11-19T05:55:24;96169.91;;;12.17;100.00
11198;BME280;5655;48.744;9.162;2023-11-19T05:57:50;96159.88;;;12.04;100.00
11198;BME280;5655;48.744;9.162;2023-11-19T06:00:17;96170.66;;;12.14;100.00
11198;BME280;5655;48.744;9.162;2023-11-19T06:02:43;96161.00;;;11.96;100.00
11198;BME280;5655;48.744;9.162;2023-11-19T06:05:08;96169.47;;;12.05;100.00
11198;BME280;5655;48.744;9.162;2023-11-19T06:07:34;96166.06;;;12.11;100.00
11198;BME280;5655;48.744;9.162;2023-11-19T06:10:01;96161.78;;;12.00;100.00
11198;BME280;5655;48.744;9.162;2023-11-19T06:12:27;96153.78;;;12.03;100.00
11198;BME280;5655;48.744;9.162;2023-11-19T06:14:53;96158.38;;;12.10;100.00
11198;BME280;5655;48.744;9.162;2023-11-19T06:17:18;96156.81;;;12.05;100.00
11198;BME280;5655;48.744;9.162;2023-11-19T06:19:46;96154.47;;;11.93;100.00
11198;BME280;5655;48.744;9.162;2023-11-19T06:22:11;96155.91;;;11.73;100.00
11198;BME280;5655;48.744;9.162;2023-11-19T06:24:36;96181.28;;;11.93;100.00
11198;BME280;5655;48.744;9.162;2023-11-19T06:27:02;96175.97;;;12.00;100.00
11198;BME280;5655;48.744;9.162;2023-11-19T06:29:28;96182.78;;;11.87;100.00
11198;BME280;5655;48.744;9.162;2023-11-19T06:31:53;96196.63;;;11.96;100.00
11198;BME280;5655;48.744;9.162;2023-11-19T06:34:18;96185.22;;;12.17;100.00
11198;BME280;5655;48.744;9.162;2023-11-19T06:36:44;96183.63;;;11.98;100.00
11198;BME280;5655;48.744;9.162;2023-11-19T06:39:09;96206.69;;;12.17;100.00
11198;BME280;5655;48.744;9.162;2023-11-19T06:41:36;96214.28;;;11.97;100.00
11198;BME280;5655;48.744;9.162;2023-11-19T06:44:03;96217.47;;;12.20;100.00
11198;BME280;5655;48.744;9.162;2023-11-19T06:46:29;96207.09;;;12.15;100.00
11198;BME280;5655;48.744;9.162;2023-11-19T06:48:55;96202.13;;;12.21;100.00
11198;BME280;5655;48.744;9.162;2023-11-19T06:51:20;96207.44;;;12.10;100.00
11198;BME280;5655;48.744;9.162;2023-11-19T06:53:45;96209.78;;;12.22;100.00
11198;BME280;5655;48.744;9.162;2023-11-19T06:56:21;96210.56;;;12.23;100.00
11198;BME280;5655;48.744;9.162;2023-11-19T06:58:46;96198.69;;;12.24;100.00
11198;BME280;5655;48.744;9.162;2023-11-19T07:01:14;96211.78;;;12.33;100.00
11198;BME280;5655;48.744;9.162;2023-11-19T07:03:40;96207.88;;;12.19;100.00
11198;BME280;5655;48.744;9.162;2023-11-19T07:06:05;96214.72;;;12.06;100.00
11198;BME280;5655;48.744;9.162;2023-11-19T07:08:30;96218.97;;;12.14;100.00
11198;BME280;5655;48.744;9.162;2023-11-19T07:10:56;96224.69;;;12.13;100.00
11198;BME280;5655;48.744;9.162;2023-11-19T07:13:21;96216.69;;;12.16;100.00
11198;BME280;5655;48.744;9.162;2023-11-19T07:15:46;96214.34;;;12.08;100.00
11198;BME280;5655;48.744;9.162;2023-11-19T07:18:12;96207.53;;;12.24;100.00
11198;BME280;5655;48.744;9.162;2023-11-19T07:20:37;96202.94;;;12.28;100.00
11198;BME280;5655;48.744;9.162;2023-11-19T07:23:03;96204.78;;;12.17;100.00
11198;BME280;5655;48.744;9.162;2023-11-19T07:25:29;96211.66;;;12.08;100.00
11198;BME280;5655;48.744;9.162;2023-11-19T07:27:54;96210.13;;;12.10;100.00
11198;BME280;5655;48.744;9.162;2023-11-19T07:30:19;96197.50;;;12.14;100.00
11198;BME280;5655;48.744;9.162;2023-11-19T07:32:44;96207.44;;;12.07;100.00
11198;BME280;5655;48.744;9.162;2023-11-19T07:35:10;96220.50;;;12.15;100.00
11198;BME280;5655;48.744;9.162;2023-11-19T07:37:35;96226.56;;;12.02;100.00
11198;BME280;5655;48.744;9.162;2023-11-19T07:40:00;96234.25;;;12.03;100.00
11198;BME280;5655;48.744;9.162;2023-11-19T07:42:26;96245.38;;;12.12;100.00
11198;BME280;5655;48.744;9.162;2023-11-19T07:44:51;96242.06;;;12.33;100.00
11198;BME280;5655;48.744;9.162;2023-11-19T07:47:16;96225.28;;;12.54;100.00
11198;BME280;5655;48.744;9.162;2023-11-19T07:49:42;96206.84;;;12.45;100.00
11198;BME280;5655;48.744;9.162;2023-11-19T07:52:09;96195.34;;;12.52;100.00
11198;BME280;5655;48.744;9.162;2023-11-19T07:54:34;96197.56;;;12.28;100.00
11198;BME280;5655;48.744;9.162;2023-11-19T07:57:00;96201.88;;;12.51;100.00
11198;BME280;5655;48.744;9.162;2023-11-19T07:59:25;96215.31;;;12.51;100.00
11198;BME280;5655;48.744;9.162;2023-11-19T08:01:50;96212.97;;;12.46;100.00
11198;BME280;5655;48.744;9.162;2023-11-19T08:04:15;96196.50;;;12.51;100.00
11198;BME280;5655;48.744;9.162;2023-11-19T08:06:41;96183.09;;;12.65;100.00
11198;BME280;5655;48.744;9.162;2023-11-19T08:09:06;96164.66;;;12.42;100.00
11198;BME280;5655;48.744;9.162;2023-11-19T08:11:33;96185.44;;;12.70;100.00
11198;BME280;5655;48.744;9.162;2023-11-19T08:13:58;96167.03;;;12.76;100.00
11198;BME280;5655;48.744;9.162;2023-11-19T08:16:24;96163.19;;;12.84;100.00
11198;BME280;5655;48.744;9.162;2023-11-19T08:18:49;96150.50;;;12.77;100.00
11198;BME280;5655;48.744;9.162;2023-11-19T08:21:14;96137.84;;;12.67;100.00
11198;BME280;5655;48.744;9.162;2023-11-19T08:23:40;96134.03;;;12.68;100.00
11198;BME280;5655;48.744;9.162;2023-11-19T08:26:06;96143.22;;;12.67;100.00
11198;BME280;5655;48.744;9.162;2023-11-19T08:28:31;96145.53;;;12.76;100.00
11198;BME280;5655;48.744;9.162;2023-11-19T08:30:56;96137.09;;;12.77;100.00
11198;BME280;5655;48.744;9.162;2023-11-19T08:33:22;96140.94;;;12.90;100.00
11198;BME280;5655;48.744;9.162;2023-11-19T08:35:48;96125.63;;;12.94;100.00
11198;BME280;5655;48.744;9.162;2023-11-19T08:38:13;96124.84;;;13.04;100.00
11198;BME280;5655;48.744;9.162;2023-11-19T08:40:38;96130.59;;;12.92;100.00
11198;BME280;5655;48.744;9.162;2023-11-19T08:43:04;96132.53;;;13.16;100.00
11198;BME280;5655;48.744;9.162;2023-11-19T08:45:29;96124.47;;;13.38;100.00
11198;BME280;5655;48.744;9.162;2023-11-19T08:47:55;96106.84;;;13.19;100.00
11198;BME280;5655;48.744;9.162;2023-11-19T08:50:20;96111.78;;;13.35;100.00
11198;BME280;5655;48.744;9.162;2023-11-19T08:52:46;96097.59;;;13.31;100.00
11198;BME280;5655;48.744;9.162;2023-11-19T08:55:11;96098.75;;;13.40;100.00
11198;BME280;5655;48.744;9.162;2023-11-19T08:57:38;96082.25;;;13.21;100.00
11198;BME280;5655;48.744;9.162;2023-11-19T09:00:04;96081.81;;;13.47;100.00
11198;BME280;5655;48.744;9.162;2023-11-19T09:02:33;96077.63;;;13.46;100.00
11198;BME280;5655;48.744;9.162;2023-11-19T09:04:59;96074.94;;;13.46;100.00
11198;BME280;5655;48.744;9.162;2023-11-19T09:07:24;96060.34;;;13.40;100.00
11198;BME280;5655;48.744;9.162;2023-11-19T09:09:49;96059.50;;;13.64;100.00
11198;BME280;5655;48.744;9.162;2023-11-19T09:12:15;96047.97;;;13.67;100.00
11198;BME280;5655;48.744;9.162;2023-11-19T09:14:40;96037.22;;;13.67;100.00
11198;BME280;5655;48.744;9.162;2023-11-19T09:17:07;96023.34;;;13.72;100.00
11198;BME280;5655;48.744;9.162;2023-11-19T09:19:32;96025.19;;;13.89;100.00
11198;BME280;5655;48.744;9.162;2023-11-19T09:21:58;96016.34;;;13.92;100.00
11198;BME280;5655;48.744;9.162;2023-11-19T09:24:23;96017.44;;;14.05;100.00
11198;BME280;5655;48.744;9.162;2023-11-19T09:26:48;96012.16;;;13.81;100.00
11198;BME280;5655;48.744;9.162;2023-11-19T09:29:14;96008.28;;;13.85;100.00
11198;BME280;5655;48.744;9.162;2023-11-19T09:31:39;96017.78;;;14.07;100.00
11198;BME280;5655;48.744;9.162;2023-11-19T09:34:05;96014.56;;;14.34;100.00
11198;BME280;5655;48.744;9.162;2023-11-19T09:36:31;96002.19;;;14.47;100.00
11198;BME280;5655;48.744;9.162;2023-11-19T09:38:56;95998.41;;;14.34;100.00
11198;BME280;5655;48.744;9.162;2023-11-19T09:41:22;95995.69;;;14.44;100.00
11198;BME280;5655;48.744;9.162;2023-11-19T09:43:48;95992.28;;;14.30;100.00
11198;BME280;5655;48.744;9.162;2023-11-19T09:46:15;95984.28;;;14.74;100.00
11198;BME280;5655;48.744;9.162;2023-11-19T09:48:42;95987.19;;;15.28;100.00
11198;BME280;5655;48.744;9.162;2023-11-19T09:51:08;95974.91;;;15.27;100.00
11198;BME280;5655;48.744;9.162;2023-11-19T09:53:35;95966.94;;;15.50;100.00
11198;BME280;5655;48.744;9.162;2023-11-19T09:56:05;95972.75;;;15.45;100.00
11198;BME280;5655;48.744;9.162;2023-11-19T09:58:32;95963.53;;;15.42;100.00
11198;BME280;5655;48.744;9.162;2023-11-19T10:00:58;95944.81;;;15.62;100.00
11198;BME280;5655;48.744;9.162;2023-11-19T10:03:25;95948.47;;;15.79;100.00
11198;BME280;5655;48.744;9.162;2023-11-19T10:05:52;95937.47;;;15.93;100.00
11198;BME280;5655;48.744;9.162;2023-11-19T10:08:18;95933.34;;;15.85;100.00
11198;BME280;5655;48.744;9.162;2023-11-19T10:10:43;95925.31;;;15.81;100.00
11198;BME280;5655;48.744;9.162;2023-11-19T10:13:09;95916.22;;;15.68;100.00
11198;BME280;5655;48.744;9.162;2023-11-19T10:15:37;95914.78;;;15.91;100.00
11198;BME280;5655;48.744;9.162;2023-11-19T10:18:03;95910.84;;;15.68;100.00
11198;BME280;5655;48.744;9.162;2023-11-19T10:20:35;95925.97;;;16.16;100.00
11198;BME280;5655;48.744;9.162;2023-11-19T10:23:01;95915.53;;;15.64;100.00
11198;BME280;5655;48.744;9.162;2023-11-19T10:25:27;95921.38;;;16.13;100.00
11198;BME280;5655;48.744;9.162;2023-11-19T10:27:53;95929.63;;;16.52;100.00
11198;BME280;5655;48.744;9.162;2023-11-19T10:30:29;95920.34;;;16.53;100.00
11198;BME280;5655;48.744;9.162;2023-11-19T10:33:14;95923.22;;;16.43;100.00
11198;BME280;5655;48.744;9.162;2023-11-19T10:35:53;95932.31;;;16.29;100.00
11198;BME280;5655;48.744;9.162;2023-11-19T10:38:18;95939.06;;;15.91;100.00
11198;BME280;5655;48.744;9.162;2023-11-19T10:40:44;95913.88;;;16.24;100.00
11198;BME280;5655;48.744;9.162;2023-11-19T10:43:09;95927.47;;;16.44;100.00
11198;BME280;5655;48.744;9.162;2023-11-19T10:45:36;95917.66;;;16.76;100.00
11198;BME280;5655;48.744;9.162;2023-11-19T10:48:02;95921.03;;;17.04;100.00
11198;BME280;5655;48.744;9.162;2023-11-19T10:50:31;95933.16;;;17.55;100.00
11198;BME280;5655;48.744;9.162;2023-11-19T10:52:57;95935.25;;;17.67;100.00
11198;BME280;5655;48.744;9.162;2023-11-19T10:55:30;95940.50;;;18.26;100.00
11198;BME280;5655;48.744;9.162;2023-11-19T10:58:03;95957.22;;;17.89;100.00
11198;BME280;5655;48.744;9.162;2023-11-19T11:00:43;95942.50;;;17.90;100.00
11198;BME280;5655;48.744;9.162;2023-11-19T11:05:48;95944.94;;;18.85;100.00
11198;BME280;5655;48.744;9.162;2023-11-19T11:08:13;95942.44;;;18.09;100.00
11198;BME280;5655;48.744;9.162;2023-11-19T11:10:43;95954.72;;;17.98;100.00
11198;BME280;5655;48.744;9.162;2023-11-19T11:13:10;95958.88;;;17.83;100.00
11198;BME280;5655;48.744;9.162;2023-11-19T11:15:37;95962.22;;;17.31;100.00
11198;BME280;5655;48.744;9.162;2023-11-19T11:18:03;95950.09;;;16.76;100.00
11198;BME280;5655;48.744;9.162;2023-11-19T11:20:32;95964.00;;;16.75;100.00
11198;BME280;5655;48.744;9.162;2023-11-19T11:23:21;95955.38;;;16.84;100.00
11198;BME280;5655;48.744;9.162;2023-11-19T11:26:00;95957.81;;;16.98;100.00
11198;BME280;5655;48.744;9.162;2023-11-19T11:31:34;95956.44;;;16.66;100.00
11198;BME280;5655;48.744;9.162;2023-11-19T11:36:29;95950.94;;;16.47;100.00
11198;BME280;5655;48.744;9.162;2023-11-19T11:38:58;95952.81;;;16.26;100.00
11198;BME280;5655;48.744;9.162;2023-11-19T11:41:25;95947.31;;;16.07;100.00
11198;BME280;5655;48.744;9.162;2023-11-19T11:43:52;95946.53;;;17.03;100.00
11198;BME280;5655;48.744;9.162;2023-11-19T11:49:04;95952.63;;;17.07;100.00
11198;BME280;5655;48.744;9.162;2023-11-19T11:54:08;95940.22;;;17.09;100.00
11198;BME280;5655;48.744;9.162;2023-11-19T11:56:37;95941.19;;;18.14;100.00
11198;BME280;5655;48.744;9.162;2023-11-19T11:59:02;95944.59;;;17.23;100.00
11198;BME280;5655;48.744;9.162;2023-11-19T12:01:28;95945.47;;;17.95;100.00
11198;BME280;5655;48.744;9.162;2023-11-19T12:03:55;95949.94;;;18.38;100.00
11198;BME280;5655;48.744;9.162;2023-11-19T12:06:22;95949.09;;;17.89;100.00
11198;BME280;5655;48.744;9.162;2023-11-19T12:08:47;95947.09;;;17.14;100.00
11198;BME280;5655;48.744;9.162;2023-11-19T12:11:12;95938.91;;;16.98;100.00
11198;BME280;5655;48.744;9.162;2023-11-19T12:13:53;95943.38;;;17.47;100.00
11198;BME280;5655;48.744;9.162;2023-11-19T12:16:21;95945.56;;;17.13;100.00
11198;BME280;5655;48.744;9.162;2023-11-19T12:18:47;95939.03;;;16.67;100.00
11198;BME280;5655;48.744;9.162;2023-11-19T12:21:27;95938.09;;;16.54;100.00
11198;BME280;5655;48.744;9.162;2023-11-19T12:23:54;95936.16;;;17.21;100.00
11198;BME280;5655;48.744;9.162;2023-11-19T12:26:37;95939.19;;;17.23;100.00
11198;BME280;5655;48.744;9.162;2023-11-19T12:29:02;95927.50;;;17.30;100.00
11198;BME280;5655;48.744;9.162;2023-11-19T12:31:32;95933.25;;;17.12;100.00
11198;BME280;5655;48.744;9.162;2023-11-19T12:33:57;95927.81;;;17.12;100.00
11198;BME280;5655;48.744;9.162;2023-11-19T12:36:22;95922.97;;;17.62;100.00
11198;BME280;5655;48.744;9.162;2023-11-19T12:38:48;95916.31;;;18.19;100.00
11198;BME280;5655;48.744;9.162;2023-11-19T12:41:13;95915.63;;;17.99;100.00
11198;BME280;5655;48.744;9.162;2023-11-19T12:43:42;95922.00;;;17.73;100.00
11198;BME280;5655;48.744;9.162;2023-11-19T12:48:45;95922.34;;;17.15;100.00
11198;BME280;5655;48.744;9.162;2023-11-19T12:51:10;95915.06;;;17.12;100.00
11198;BME280;5655;48.744;9.162;2023-11-19T12:53:51;95916.31;;;17.08;100.00
11198;BME280;5655;48.744;9.162;2023-11-19T12:56:19;95903.97;;;17.07;100.00
11198;BME280;5655;48.744;9.162;2023-11-19T12:58:45;95917.63;;;17.19;100.00
11198;BME280;5655;48.744;9.162;2023-11-19T13:01:16;95914.53;;;17.21;100.00
11198;BME280;5655;48.744;9.162;2023-11-19T13:03:41;95917.41;;;17.69;100.00
11198;BME280;5655;48.744;9.162;2023-11-19T13:06:09;95918.25;;;17.66;100.00
11198;BME280;5655;48.744;9.162;2023-11-19T13:11:04;95915.22;;;17.64;100.00
11198;BME280;5655;48.744;9.162;2023-11-19T13:13:31;95913.94;;;17.49;100.00
11198;BME280;5655;48.744;9.162;2023-11-19T13:16:06;95916.44;;;17.40;100.00